SIA217 WSSS-YMML
Flight info
| Callsign | SIA217 |
|---|---|
| Flight time | N/A |
| Altitude | 36000 |
| Route | ANITO8B ANITO B470 PKP L895 SAPDA A585 AD V255 BENDO Y12 ARBEY ARBEY7A |
| Aircraft | B77W/H-SADE1E2E3GHIJ1J3J5M1P2RWXY/LB1D1 |
Departure
| Time | 2026-05-06 07:30 |
|---|---|
| Airport | Singapore Changi Airport (WSSS) |
Arrival
| Time | N/A |
|---|---|
| Airport | Melbourne Airport (YMML) |
| Time | Latitude | Longitude | Altitude | Speed | Heading |
|---|---|---|---|---|---|
| 2026-05-06 06:13 | 1.35049 | 103.98261 | 41 ft | 0 kts | 154° |
| 2026-05-06 07:09 | 1.35050 | 103.98261 | 41 ft | 1 kts | 154° |
| 2026-05-06 07:10 | 1.35063 | 103.98255 | 41 ft | 2 kts | 160° |
| 2026-05-06 07:10 | 1.35077 | 103.98251 | 40 ft | 2 kts | 166° |
| 2026-05-06 07:10 | 1.35092 | 103.98247 | 40 ft | 2 kts | 172° |
| 2026-05-06 07:10 | 1.35107 | 103.98246 | 40 ft | 2 kts | 177° |
| 2026-05-06 07:11 | 1.35122 | 103.98246 | 39 ft | 2 kts | 182° |
| 2026-05-06 07:11 | 1.35137 | 103.98247 | 39 ft | 2 kts | 188° |
| 2026-05-06 07:11 | 1.35152 | 103.98250 | 39 ft | 2 kts | 194° |
| 2026-05-06 07:11 | 1.35166 | 103.98254 | 39 ft | 2 kts | 199° |
| 2026-05-06 07:12 | 1.35180 | 103.98259 | 39 ft | 2 kts | 203° |
| 2026-05-06 07:12 | 1.35193 | 103.98264 | 38 ft | 0 kts | 203° |
| 2026-05-06 07:12 | 1.35194 | 103.98265 | 38 ft | 0 kts | 203° |
| 2026-05-06 07:14 | 1.35193 | 103.98265 | 38 ft | 0 kts | 203° |
| 2026-05-06 07:15 | 1.35186 | 103.98261 | 39 ft | 2 kts | 205° |
| 2026-05-06 07:15 | 1.35164 | 103.98248 | 39 ft | 5 kts | 216° |
| 2026-05-06 07:15 | 1.35133 | 103.98214 | 39 ft | 8 kts | 234° |
| 2026-05-06 07:15 | 1.35099 | 103.98155 | 38 ft | 11 kts | 239° |
| 2026-05-06 07:16 | 1.35036 | 103.98102 | 39 ft | 12 kts | 206° |
| 2026-05-06 07:16 | 1.34945 | 103.98061 | 38 ft | 15 kts | 203° |
| 2026-05-06 07:16 | 1.34848 | 103.98019 | 40 ft | 14 kts | 203° |
| 2026-05-06 07:16 | 1.34762 | 103.97984 | 39 ft | 13 kts | 202° |
| 2026-05-06 07:17 | 1.34675 | 103.97950 | 37 ft | 12 kts | 192° |
| 2026-05-06 07:17 | 1.34599 | 103.97994 | 37 ft | 7 kts | 74° |
| 2026-05-06 07:17 | 1.34625 | 103.98023 | 37 ft | 8 kts | 38° |
| 2026-05-06 07:17 | 1.34656 | 103.98067 | 37 ft | 7 kts | 82° |
| 2026-05-06 07:18 | 1.34648 | 103.98114 | 38 ft | 6 kts | 110° |
| 2026-05-06 07:18 | 1.34632 | 103.98154 | 39 ft | 6 kts | 108° |
| 2026-05-06 07:18 | 1.34617 | 103.98195 | 39 ft | 6 kts | 113° |
| 2026-05-06 07:18 | 1.34599 | 103.98238 | 40 ft | 6 kts | 112° |
| 2026-05-06 07:19 | 1.34579 | 103.98283 | 40 ft | 7 kts | 113° |
| 2026-05-06 07:19 | 1.34557 | 103.98334 | 41 ft | 8 kts | 113° |
| 2026-05-06 07:19 | 1.34529 | 103.98400 | 40 ft | 11 kts | 113° |
| 2026-05-06 07:19 | 1.34495 | 103.98479 | 40 ft | 13 kts | 114° |
| 2026-05-06 07:20 | 1.34456 | 103.98570 | 39 ft | 15 kts | 112° |
| 2026-05-06 07:20 | 1.34412 | 103.98672 | 39 ft | 16 kts | 113° |
| 2026-05-06 07:20 | 1.34369 | 103.98774 | 38 ft | 15 kts | 112° |
| 2026-05-06 07:20 | 1.34332 | 103.98867 | 37 ft | 13 kts | 105° |
| 2026-05-06 07:21 | 1.34373 | 103.98929 | 38 ft | 11 kts | 26° |
| 2026-05-06 07:21 | 1.34437 | 103.98959 | 39 ft | 9 kts | 24° |
| 2026-05-06 07:21 | 1.34490 | 103.98981 | 40 ft | 7 kts | 22° |
| 2026-05-06 07:21 | 1.34543 | 103.99004 | 41 ft | 8 kts | 22° |
| 2026-05-06 07:22 | 1.34601 | 103.99028 | 42 ft | 9 kts | 23° |
| 2026-05-06 07:22 | 1.34673 | 103.99058 | 43 ft | 13 kts | 23° |
| 2026-05-06 07:22 | 1.34766 | 103.99099 | 45 ft | 15 kts | 23° |
| 2026-05-06 07:22 | 1.34878 | 103.99147 | 45 ft | 19 kts | 23° |
| 2026-05-06 07:23 | 1.35005 | 103.99201 | 46 ft | 19 kts | 24° |
| 2026-05-06 07:23 | 1.35119 | 103.99251 | 46 ft | 16 kts | 24° |
| 2026-05-06 07:23 | 1.35223 | 103.99297 | 45 ft | 15 kts | 23° |
| 2026-05-06 07:23 | 1.35316 | 103.99335 | 46 ft | 13 kts | 22° |
| 2026-05-06 07:24 | 1.35404 | 103.99372 | 45 ft | 13 kts | 22° |
| 2026-05-06 07:24 | 1.35494 | 103.99410 | 45 ft | 13 kts | 22° |
| 2026-05-06 07:24 | 1.35577 | 103.99444 | 46 ft | 12 kts | 19° |
| 2026-05-06 07:24 | 1.35661 | 103.99478 | 44 ft | 13 kts | 23° |
| 2026-05-06 07:25 | 1.35748 | 103.99515 | 43 ft | 13 kts | 22° |
| 2026-05-06 07:25 | 1.35836 | 103.99551 | 42 ft | 13 kts | 23° |
| 2026-05-06 07:25 | 1.35926 | 103.99590 | 42 ft | 13 kts | 23° |
| 2026-05-06 07:25 | 1.36015 | 103.99628 | 41 ft | 14 kts | 23° |
| 2026-05-06 07:26 | 1.36110 | 103.99670 | 38 ft | 15 kts | 23° |
| 2026-05-06 07:26 | 1.36211 | 103.99712 | 37 ft | 15 kts | 23° |
| 2026-05-06 07:26 | 1.36308 | 103.99754 | 36 ft | 14 kts | 23° |
| 2026-05-06 07:26 | 1.36376 | 103.99784 | 35 ft | 7 kts | 29° |
| 2026-05-06 07:27 | 1.36390 | 103.99827 | 34 ft | 7 kts | 105° |
| 2026-05-06 07:27 | 1.36355 | 103.99864 | 34 ft | 7 kts | 159° |
| 2026-05-06 07:27 | 1.36305 | 103.99880 | 34 ft | 7 kts | 163° |
| 2026-05-06 07:27 | 1.36261 | 103.99888 | 35 ft | 5 kts | 172° |
| 2026-05-06 07:28 | 1.36226 | 103.99892 | 36 ft | 4 kts | 172° |
| 2026-05-06 07:28 | 1.36199 | 103.99892 | 36 ft | 3 kts | 191° |
| 2026-05-06 07:28 | 1.36160 | 103.99882 | 36 ft | 0 kts | 202° |
| 2026-05-06 07:29 | 1.36024 | 103.99820 | 37 ft | 52 kts | 205° |
| 2026-05-06 07:29 | 1.35476 | 103.99593 | 42 ft | 117 kts | 201° |
| 2026-05-06 07:29 | 1.34530 | 103.99194 | 43 ft | 174 kts | 202° |
| 2026-05-06 07:30 | 1.33332 | 103.98704 | 361 ft | 195 kts | 200° |
| 2026-05-06 07:30 | 1.32062 | 103.98186 | 1193 ft | 196 kts | 199° |
| 2026-05-06 07:30 | 1.30784 | 103.97749 | 1804 ft | 202 kts | 205° |
| 2026-05-06 07:30 | 1.29480 | 103.97098 | 2251 ft | 218 kts | 205° |
| 2026-05-06 07:31 | 1.28022 | 103.96441 | 2746 ft | 235 kts | 202° |
| 2026-05-06 07:31 | 1.26457 | 103.95775 | 3280 ft | 253 kts | 202° |
| 2026-05-06 07:31 | 1.24789 | 103.95076 | 3876 ft | 268 kts | 202° |
| 2026-05-06 07:31 | 1.22974 | 103.94614 | 4609 ft | 275 kts | 179° |
| 2026-05-06 07:32 | 1.21082 | 103.94850 | 5450 ft | 278 kts | 167° |
| 2026-05-06 07:32 | 1.19172 | 103.95305 | 5896 ft | 281 kts | 165° |
| 2026-05-06 07:32 | 1.17248 | 103.95791 | 5970 ft | 282 kts | 165° |
| 2026-05-06 07:32 | 1.15336 | 103.96269 | 5977 ft | 281 kts | 166° |
| 2026-05-06 07:33 | 1.13434 | 103.96741 | 5978 ft | 282 kts | 166° |
| 2026-05-06 07:33 | 1.11527 | 103.97234 | 5969 ft | 282 kts | 160° |
| 2026-05-06 07:33 | 1.09819 | 103.98168 | 5975 ft | 282 kts | 144° |
| 2026-05-06 07:33 | 1.08239 | 103.99345 | 5978 ft | 281 kts | 142° |
| 2026-05-06 07:34 | 1.06675 | 104.00559 | 5969 ft | 281 kts | 142° |
| 2026-05-06 07:34 | 1.05116 | 104.01767 | 5970 ft | 281 kts | 142° |
| 2026-05-06 07:34 | 1.03599 | 104.02966 | 5958 ft | 280 kts | 136° |
| 2026-05-06 07:34 | 1.02456 | 104.04553 | 5965 ft | 280 kts | 116° |
| 2026-05-06 07:35 | 1.01644 | 104.06310 | 5966 ft | 279 kts | 112° |
| 2026-05-06 07:35 | 1.00884 | 104.08104 | 5969 ft | 278 kts | 112° |
| 2026-05-06 07:35 | 1.00135 | 104.09883 | 5967 ft | 278 kts | 112° |
| 2026-05-06 07:35 | 0.99382 | 104.11661 | 5966 ft | 278 kts | 112° |
| 2026-05-06 07:36 | 0.98624 | 104.13453 | 6000 ft | 289 kts | 112° |
| 2026-05-06 07:36 | 0.97835 | 104.15327 | 6885 ft | 289 kts | 112° |
| 2026-05-06 07:36 | 0.97079 | 104.17123 | 8010 ft | 280 kts | 112° |
| 2026-05-06 07:36 | 0.96328 | 104.18906 | 8770 ft | 285 kts | 112° |
| 2026-05-06 07:37 | 0.95555 | 104.20740 | 9537 ft | 288 kts | 112° |
| 2026-05-06 07:37 | 0.94760 | 104.22558 | 10309 ft | 292 kts | 116° |
| 2026-05-06 07:37 | 0.93701 | 104.24369 | 10762 ft | 308 kts | 121° |
| 2026-05-06 07:37 | 0.92519 | 104.26242 | 11109 ft | 328 kts | 121° |
| 2026-05-06 07:38 | 0.91279 | 104.28214 | 11508 ft | 346 kts | 121° |
| 2026-05-06 07:38 | 0.89970 | 104.30312 | 11923 ft | 363 kts | 121° |
| 2026-05-06 07:38 | 0.88602 | 104.32507 | 12336 ft | 379 kts | 120° |
| 2026-05-06 07:38 | 0.87185 | 104.34782 | 12766 ft | 393 kts | 120° |
| 2026-05-06 07:39 | 0.85736 | 104.37110 | 13386 ft | 401 kts | 120° |
| 2026-05-06 07:39 | 0.84265 | 104.39471 | 14231 ft | 401 kts | 120° |
| 2026-05-06 07:39 | 0.82775 | 104.41864 | 14990 ft | 404 kts | 120° |
| 2026-05-06 07:39 | 0.81259 | 104.44231 | 15628 ft | 410 kts | 123° |
| 2026-05-06 07:40 | 0.79587 | 104.46574 | 16251 ft | 415 kts | 124° |
| 2026-05-06 07:40 | 0.77906 | 104.48909 | 16896 ft | 419 kts | 124° |
| 2026-05-06 07:40 | 0.76194 | 104.51296 | 17574 ft | 422 kts | 124° |
| 2026-05-06 07:40 | 0.74387 | 104.53590 | 18184 ft | 427 kts | 131° |
| 2026-05-06 07:41 | 0.72176 | 104.55618 | 18762 ft | 433 kts | 141° |
| 2026-05-06 07:41 | 0.69642 | 104.57246 | 19326 ft | 439 kts | 150° |
| 2026-05-06 07:41 | 0.66800 | 104.58440 | 19894 ft | 445 kts | 160° |
| 2026-05-06 07:41 | 0.63810 | 104.59354 | 20465 ft | 449 kts | 161° |
| 2026-05-06 07:42 | 0.60799 | 104.60242 | 20982 ft | 453 kts | 161° |
| 2026-05-06 07:42 | 0.57735 | 104.61147 | 21466 ft | 457 kts | 161° |
| 2026-05-06 07:42 | 0.54699 | 104.62045 | 21964 ft | 461 kts | 161° |
| 2026-05-06 07:42 | 0.51605 | 104.62962 | 22480 ft | 464 kts | 161° |
| 2026-05-06 07:43 | 0.48470 | 104.63892 | 22992 ft | 467 kts | 161° |
| 2026-05-06 07:43 | 0.45340 | 104.64820 | 23487 ft | 470 kts | 161° |
| 2026-05-06 07:43 | 0.42207 | 104.65746 | 23995 ft | 473 kts | 161° |
| 2026-05-06 07:43 | 0.39009 | 104.66692 | 24510 ft | 476 kts | 162° |
| 2026-05-06 07:44 | 0.35812 | 104.67638 | 25012 ft | 479 kts | 162° |
| 2026-05-06 07:44 | 0.32614 | 104.68584 | 25486 ft | 482 kts | 162° |
| 2026-05-06 07:44 | 0.29373 | 104.69544 | 25957 ft | 485 kts | 162° |
| 2026-05-06 07:44 | 0.26123 | 104.70506 | 26424 ft | 488 kts | 162° |
| 2026-05-06 07:45 | 0.22826 | 104.71482 | 26880 ft | 491 kts | 162° |
| 2026-05-06 07:45 | 0.19557 | 104.72450 | 27326 ft | 494 kts | 162° |
| 2026-05-06 07:45 | 0.16226 | 104.73437 | 27764 ft | 497 kts | 162° |
| 2026-05-06 07:45 | 0.12901 | 104.74422 | 28179 ft | 501 kts | 162° |
| 2026-05-06 07:46 | 0.09523 | 104.75425 | 28590 ft | 504 kts | 162° |
| 2026-05-06 07:46 | 0.06149 | 104.76427 | 28798 ft | 510 kts | 162° |
| 2026-05-06 07:46 | -0.00643 | 104.78444 | 28807 ft | 506 kts | 162° |
| 2026-05-06 07:47 | -0.04073 | 104.79462 | 28969 ft | 514 kts | 162° |
| 2026-05-06 07:47 | -0.07506 | 104.80482 | 29642 ft | 511 kts | 162° |
| 2026-05-06 07:47 | -0.10879 | 104.81484 | 30581 ft | 502 kts | 162° |
| 2026-05-06 07:47 | -0.14236 | 104.82480 | 31415 ft | 496 kts | 162° |
| 2026-05-06 07:48 | -0.17507 | 104.83451 | 32016 ft | 494 kts | 162° |
| 2026-05-06 07:48 | -0.20838 | 104.84441 | 32479 ft | 495 kts | 162° |
| 2026-05-06 07:48 | -0.24174 | 104.85432 | 32998 ft | 496 kts | 162° |
| 2026-05-06 07:48 | -0.27393 | 104.86553 | 33587 ft | 493 kts | 155° |
| 2026-05-06 07:49 | -0.30436 | 104.88142 | 34202 ft | 490 kts | 147° |
| 2026-05-06 07:49 | -0.33293 | 104.90017 | 34752 ft | 489 kts | 145° |
| 2026-05-06 07:49 | -0.38938 | 104.93835 | 34801 ft | 488 kts | 145° |
| 2026-05-06 07:50 | -0.44615 | 104.97679 | 34796 ft | 486 kts | 145° |
| 2026-05-06 07:50 | -0.50282 | 105.01516 | 34793 ft | 486 kts | 145° |
| 2026-05-06 07:51 | -0.55933 | 105.05340 | 34786 ft | 488 kts | 145° |
| 2026-05-06 07:51 | -0.61589 | 105.09167 | 34786 ft | 487 kts | 145° |
| 2026-05-06 07:52 | -0.67177 | 105.12949 | 34785 ft | 488 kts | 145° |
| 2026-05-06 07:52 | -0.72808 | 105.16760 | 34785 ft | 488 kts | 145° |
| 2026-05-06 07:53 | -0.78456 | 105.20582 | 34785 ft | 487 kts | 145° |
| 2026-05-06 07:53 | -0.84115 | 105.24412 | 34785 ft | 487 kts | 145° |
| 2026-05-06 07:54 | -0.89769 | 105.28238 | 34785 ft | 487 kts | 145° |
| 2026-05-06 07:54 | -0.95412 | 105.32056 | 34785 ft | 487 kts | 144° |
| 2026-05-06 07:55 | -1.01031 | 105.35860 | 34785 ft | 488 kts | 145° |
| 2026-05-06 07:55 | -1.06646 | 105.39661 | 34785 ft | 488 kts | 144° |
| 2026-05-06 07:56 | -1.12316 | 105.43498 | 34784 ft | 488 kts | 144° |
| 2026-05-06 07:56 | -1.17934 | 105.47301 | 34788 ft | 489 kts | 144° |
| 2026-05-06 07:57 | -1.23579 | 105.51122 | 34791 ft | 489 kts | 144° |
| 2026-05-06 07:57 | -1.29212 | 105.54936 | 34793 ft | 489 kts | 144° |
| 2026-05-06 07:58 | -1.34865 | 105.58763 | 34799 ft | 489 kts | 144° |
| 2026-05-06 07:58 | -1.40518 | 105.62590 | 34801 ft | 490 kts | 145° |
| 2026-05-06 07:59 | -1.46199 | 105.66437 | 34807 ft | 489 kts | 144° |
| 2026-05-06 07:59 | -1.51870 | 105.70277 | 34802 ft | 490 kts | 144° |
| 2026-05-06 08:00 | -1.57529 | 105.74109 | 34796 ft | 490 kts | 144° |
| 2026-05-06 08:00 | -1.63184 | 105.77939 | 34793 ft | 490 kts | 144° |
| 2026-05-06 08:01 | -1.68832 | 105.81764 | 34795 ft | 491 kts | 144° |
| 2026-05-06 08:01 | -1.74517 | 105.85614 | 34793 ft | 490 kts | 144° |
| 2026-05-06 08:02 | -1.80135 | 105.89420 | 34795 ft | 490 kts | 145° |
| 2026-05-06 08:02 | -1.85806 | 105.93262 | 34798 ft | 490 kts | 145° |
| 2026-05-06 08:03 | -1.91497 | 105.97117 | 34802 ft | 491 kts | 144° |
| 2026-05-06 08:03 | -1.97172 | 106.00962 | 34804 ft | 491 kts | 144° |
| 2026-05-06 08:04 | -2.02841 | 106.04803 | 34803 ft | 490 kts | 144° |
| 2026-05-06 08:04 | -2.08492 | 106.08632 | 34799 ft | 491 kts | 145° |
| 2026-05-06 08:05 | -2.14453 | 106.12083 | 34793 ft | 492 kts | 151° |
| 2026-05-06 08:05 | -2.20537 | 106.15299 | 34792 ft | 492 kts | 151° |
| 2026-05-06 08:06 | -2.26600 | 106.18504 | 34789 ft | 492 kts | 151° |
| 2026-05-06 08:06 | -2.32671 | 106.21711 | 34788 ft | 491 kts | 151° |
| 2026-05-06 08:07 | -2.38726 | 106.24912 | 34788 ft | 491 kts | 151° |
| 2026-05-06 08:07 | -2.44798 | 106.28121 | 34789 ft | 491 kts | 151° |
| 2026-05-06 08:08 | -2.50881 | 106.31336 | 34789 ft | 491 kts | 151° |
| 2026-05-06 08:08 | -2.56922 | 106.34530 | 34790 ft | 491 kts | 151° |
| 2026-05-06 08:09 | -2.62957 | 106.37721 | 34789 ft | 491 kts | 151° |
| 2026-05-06 08:09 | -2.69011 | 106.40923 | 34789 ft | 491 kts | 151° |
| 2026-05-06 08:10 | -2.75073 | 106.44128 | 34790 ft | 491 kts | 151° |
| 2026-05-06 08:10 | -2.81107 | 106.47320 | 34794 ft | 491 kts | 151° |
| 2026-05-06 08:11 | -2.87153 | 106.50518 | 34801 ft | 491 kts | 151° |
| 2026-05-06 08:11 | -2.93217 | 106.53725 | 34811 ft | 491 kts | 151° |
| 2026-05-06 08:12 | -2.99272 | 106.56930 | 34819 ft | 491 kts | 151° |
| 2026-05-06 08:12 | -3.05308 | 106.60123 | 34815 ft | 490 kts | 151° |
| 2026-05-06 08:13 | -3.11344 | 106.63318 | 34806 ft | 489 kts | 151° |
| 2026-05-06 08:13 | -3.17392 | 106.66519 | 34806 ft | 489 kts | 151° |
| 2026-05-06 08:14 | -3.23430 | 106.69716 | 34803 ft | 489 kts | 151° |
| 2026-05-06 08:14 | -3.29460 | 106.72908 | 34799 ft | 489 kts | 151° |
| 2026-05-06 08:15 | -3.35497 | 106.76105 | 34795 ft | 489 kts | 151° |
| 2026-05-06 08:15 | -3.41523 | 106.79296 | 34790 ft | 488 kts | 151° |
| 2026-05-06 08:16 | -3.47519 | 106.82472 | 34786 ft | 488 kts | 151° |
| 2026-05-06 08:16 | -3.53587 | 106.85686 | 34786 ft | 488 kts | 151° |
| 2026-05-06 08:17 | -3.59611 | 106.88878 | 34786 ft | 488 kts | 151° |
| 2026-05-06 08:17 | -3.65625 | 106.92065 | 34786 ft | 487 kts | 151° |
| 2026-05-06 08:18 | -3.71649 | 106.95258 | 34785 ft | 486 kts | 151° |
| 2026-05-06 08:18 | -3.77660 | 106.98444 | 34785 ft | 486 kts | 151° |
| 2026-05-06 08:19 | -3.83652 | 107.01620 | 34785 ft | 485 kts | 151° |
| 2026-05-06 08:19 | -3.89614 | 107.04782 | 34785 ft | 484 kts | 151° |
| 2026-05-06 08:20 | -3.95577 | 107.07944 | 34784 ft | 484 kts | 151° |
| 2026-05-06 08:20 | -4.01553 | 107.11114 | 34785 ft | 484 kts | 151° |
| 2026-05-06 08:21 | -4.07532 | 107.14286 | 34785 ft | 485 kts | 151° |
| 2026-05-06 08:21 | -4.13546 | 107.17477 | 34786 ft | 486 kts | 151° |
| 2026-05-06 08:22 | -4.19568 | 107.20672 | 34786 ft | 485 kts | 151° |
| 2026-05-06 08:22 | -4.25546 | 107.23846 | 34785 ft | 487 kts | 151° |
| 2026-05-06 08:23 | -4.31552 | 107.27034 | 34785 ft | 487 kts | 151° |
| 2026-05-06 08:23 | -4.37578 | 107.30234 | 34785 ft | 487 kts | 151° |
| 2026-05-06 08:24 | -4.43587 | 107.33424 | 34786 ft | 488 kts | 151° |
| 2026-05-06 08:24 | -4.49595 | 107.36616 | 34789 ft | 488 kts | 151° |
| 2026-05-06 08:25 | -4.55619 | 107.39816 | 34795 ft | 488 kts | 151° |
| 2026-05-06 08:25 | -4.61658 | 107.43024 | 34803 ft | 488 kts | 151° |
| 2026-05-06 08:26 | -4.67667 | 107.46218 | 34806 ft | 489 kts | 151° |
| 2026-05-06 08:26 | -4.73739 | 107.49446 | 34804 ft | 490 kts | 151° |
| 2026-05-06 08:27 | -4.79756 | 107.52645 | 34803 ft | 489 kts | 151° |
| 2026-05-06 08:27 | -4.85815 | 107.55867 | 34794 ft | 489 kts | 151° |
| 2026-05-06 08:28 | -4.91886 | 107.59096 | 34784 ft | 489 kts | 151° |
| 2026-05-06 08:28 | -4.97941 | 107.62318 | 34785 ft | 489 kts | 151° |
| 2026-05-06 08:29 | -5.03962 | 107.65521 | 34785 ft | 489 kts | 151° |
| 2026-05-06 08:29 | -5.10013 | 107.68742 | 34788 ft | 489 kts | 151° |
| 2026-05-06 08:30 | -5.16049 | 107.71955 | 34786 ft | 489 kts | 151° |
| 2026-05-06 08:30 | -5.22060 | 107.75156 | 34786 ft | 489 kts | 151° |
| 2026-05-06 08:31 | -5.28115 | 107.78381 | 34787 ft | 489 kts | 151° |
| 2026-05-06 08:31 | -5.34131 | 107.81586 | 34807 ft | 492 kts | 151° |
| 2026-05-06 08:32 | -5.37169 | 107.83204 | 35181 ft | 494 kts | 151° |
| 2026-05-06 08:32 | -5.40172 | 107.84804 | 35886 ft | 489 kts | 151° |
| 2026-05-06 08:32 | -5.43190 | 107.86412 | 36517 ft | 485 kts | 151° |
| 2026-05-06 08:32 | -5.46183 | 107.88007 | 36788 ft | 487 kts | 151° |
| 2026-05-06 08:33 | -5.52205 | 107.91218 | 36785 ft | 489 kts | 151° |
| 2026-05-06 08:33 | -5.58222 | 107.94426 | 36785 ft | 488 kts | 151° |
| 2026-05-06 08:34 | -5.67240 | 107.99236 | 36786 ft | 487 kts | 152° |
| 2026-05-06 08:35 | -5.73245 | 108.02439 | 36786 ft | 488 kts | 152° |
| 2026-05-06 08:35 | -5.79244 | 108.05640 | 36786 ft | 489 kts | 152° |
| 2026-05-06 08:36 | -5.85277 | 108.08861 | 36786 ft | 490 kts | 152° |
| 2026-05-06 08:36 | -5.91310 | 108.12081 | 36786 ft | 490 kts | 152° |
| 2026-05-06 08:37 | -5.97318 | 108.15289 | 36787 ft | 489 kts | 152° |
| 2026-05-06 08:37 | -6.03359 | 108.18516 | 36796 ft | 490 kts | 152° |
| 2026-05-06 08:38 | -6.09389 | 108.21738 | 36806 ft | 489 kts | 152° |
| 2026-05-06 08:38 | -6.15422 | 108.24963 | 36812 ft | 490 kts | 152° |
| 2026-05-06 08:39 | -6.21444 | 108.28181 | 36810 ft | 489 kts | 152° |
| 2026-05-06 08:39 | -6.27471 | 108.31404 | 36812 ft | 490 kts | 152° |
| 2026-05-06 08:40 | -6.33470 | 108.34613 | 36804 ft | 489 kts | 152° |
| 2026-05-06 08:40 | -6.39481 | 108.37828 | 36809 ft | 489 kts | 152° |
| 2026-05-06 08:41 | -6.45498 | 108.41048 | 36813 ft | 489 kts | 152° |
| 2026-05-06 08:41 | -6.51537 | 108.44281 | 36816 ft | 490 kts | 152° |
| 2026-05-06 08:42 | -6.57614 | 108.47535 | 36811 ft | 489 kts | 152° |
| 2026-05-06 08:42 | -6.63593 | 108.50736 | 36817 ft | 490 kts | 152° |
| 2026-05-06 08:43 | -6.69654 | 108.53983 | 36821 ft | 489 kts | 152° |
| 2026-05-06 08:43 | -6.75674 | 108.57210 | 36824 ft | 489 kts | 152° |
| 2026-05-06 08:44 | -6.81708 | 108.60444 | 36832 ft | 488 kts | 152° |
| 2026-05-06 08:44 | -6.87717 | 108.63666 | 36836 ft | 489 kts | 152° |
| 2026-05-06 08:45 | -6.93715 | 108.66883 | 36836 ft | 488 kts | 152° |
| 2026-05-06 08:45 | -6.99681 | 108.70083 | 36839 ft | 487 kts | 152° |
| 2026-05-06 08:46 | -7.05708 | 108.73318 | 36839 ft | 487 kts | 152° |
| 2026-05-06 08:46 | -7.11721 | 108.76546 | 36831 ft | 488 kts | 152° |
| 2026-05-06 08:47 | -7.17697 | 108.79755 | 36820 ft | 487 kts | 152° |
| 2026-05-06 08:47 | -7.23738 | 108.82999 | 36822 ft | 488 kts | 152° |
| 2026-05-06 08:48 | -7.29770 | 108.86240 | 36824 ft | 488 kts | 152° |
| 2026-05-06 08:48 | -7.35770 | 108.89465 | 36819 ft | 488 kts | 152° |
| 2026-05-06 08:49 | -7.41779 | 108.92696 | 36815 ft | 489 kts | 152° |
| 2026-05-06 08:49 | -7.47790 | 108.95928 | 36818 ft | 488 kts | 152° |
| 2026-05-06 08:50 | -7.53789 | 108.99155 | 36814 ft | 488 kts | 152° |
| 2026-05-06 08:50 | -7.59787 | 109.02383 | 36815 ft | 488 kts | 152° |
| 2026-05-06 08:51 | -7.65822 | 109.05631 | 36813 ft | 488 kts | 152° |
| 2026-05-06 08:51 | -7.71830 | 109.08867 | 36811 ft | 490 kts | 152° |
| 2026-05-06 08:52 | -7.77864 | 109.12117 | 36807 ft | 489 kts | 152° |
| 2026-05-06 08:52 | -7.83881 | 109.15359 | 36807 ft | 490 kts | 152° |
| 2026-05-06 08:53 | -7.89886 | 109.18596 | 36807 ft | 488 kts | 152° |
| 2026-05-06 08:53 | -7.95854 | 109.21813 | 36807 ft | 489 kts | 152° |
| 2026-05-06 08:54 | -8.01874 | 109.25060 | 36807 ft | 488 kts | 152° |
| 2026-05-06 08:54 | -8.07865 | 109.28293 | 36809 ft | 488 kts | 152° |
| 2026-05-06 08:55 | -8.13872 | 109.31535 | 36809 ft | 488 kts | 152° |
| 2026-05-06 08:55 | -8.19889 | 109.34784 | 36812 ft | 489 kts | 153° |
| 2026-05-06 08:56 | -8.25890 | 109.38025 | 36813 ft | 488 kts | 153° |
| 2026-05-06 08:56 | -8.31908 | 109.41277 | 36813 ft | 488 kts | 153° |
| 2026-05-06 08:57 | -8.37882 | 109.44505 | 36816 ft | 487 kts | 153° |
| 2026-05-06 08:57 | -8.43883 | 109.47750 | 36816 ft | 487 kts | 153° |
| 2026-05-06 08:58 | -8.49930 | 109.51020 | 36819 ft | 487 kts | 153° |
| 2026-05-06 08:58 | -8.55933 | 109.54269 | 36821 ft | 487 kts | 153° |
| 2026-05-06 08:59 | -8.61938 | 109.57518 | 36821 ft | 487 kts | 153° |
| 2026-05-06 08:59 | -8.67923 | 109.60759 | 36822 ft | 486 kts | 153° |
| 2026-05-06 09:00 | -8.73927 | 109.64011 | 36824 ft | 486 kts | 153° |
| 2026-05-06 09:00 | -8.79886 | 109.67240 | 36819 ft | 486 kts | 153° |
| 2026-05-06 09:01 | -8.85891 | 109.70495 | 36819 ft | 486 kts | 153° |
| 2026-05-06 09:01 | -8.91913 | 109.73760 | 36812 ft | 486 kts | 153° |
| 2026-05-06 09:02 | -8.97890 | 109.77003 | 36808 ft | 486 kts | 153° |
| 2026-05-06 09:02 | -9.03850 | 109.80237 | 36813 ft | 486 kts | 153° |
| 2026-05-06 09:03 | -9.09830 | 109.83483 | 36825 ft | 486 kts | 153° |
| 2026-05-06 09:03 | -9.15829 | 109.86741 | 36828 ft | 487 kts | 153° |
| 2026-05-06 09:04 | -9.21771 | 109.89969 | 36830 ft | 487 kts | 153° |
| 2026-05-06 09:04 | -9.27817 | 109.93255 | 36831 ft | 487 kts | 153° |
| 2026-05-06 09:05 | -9.33797 | 109.96506 | 36834 ft | 487 kts | 153° |
| 2026-05-06 09:05 | -9.39809 | 109.99777 | 36833 ft | 487 kts | 153° |
| 2026-05-06 09:06 | -9.45761 | 110.03015 | 36836 ft | 488 kts | 154° |
| 2026-05-06 09:06 | -9.51779 | 110.06290 | 36832 ft | 488 kts | 153° |
| 2026-05-06 09:07 | -9.57809 | 110.09574 | 36828 ft | 490 kts | 153° |
| 2026-05-06 09:07 | -9.63779 | 110.12826 | 36827 ft | 489 kts | 153° |
| 2026-05-06 09:08 | -9.69806 | 110.16112 | 36827 ft | 489 kts | 154° |
| 2026-05-06 09:08 | -9.75770 | 110.19363 | 36828 ft | 489 kts | 154° |
| 2026-05-06 09:09 | -9.81819 | 110.22663 | 36827 ft | 488 kts | 154° |
| 2026-05-06 09:09 | -9.87826 | 110.25940 | 36829 ft | 490 kts | 154° |
| 2026-05-06 09:10 | -9.93848 | 110.29228 | 36829 ft | 490 kts | 154° |
| 2026-05-06 09:10 | -9.99869 | 110.32516 | 36833 ft | 490 kts | 154° |
| 2026-05-06 09:11 | -10.05930 | 110.35828 | 36836 ft | 491 kts | 154° |
| 2026-05-06 09:11 | -10.11936 | 110.39111 | 36840 ft | 490 kts | 154° |
| 2026-05-06 09:12 | -10.17946 | 110.42396 | 36840 ft | 489 kts | 154° |
| 2026-05-06 09:12 | -10.23954 | 110.45684 | 36844 ft | 489 kts | 154° |
| 2026-05-06 09:13 | -10.29945 | 110.48962 | 36850 ft | 489 kts | 154° |
| 2026-05-06 09:13 | -10.35976 | 110.52265 | 36850 ft | 489 kts | 154° |
| 2026-05-06 09:14 | -10.42002 | 110.55566 | 36850 ft | 489 kts | 154° |
| 2026-05-06 09:14 | -10.47988 | 110.58847 | 36850 ft | 489 kts | 154° |
| 2026-05-06 09:15 | -10.54004 | 110.62145 | 36850 ft | 490 kts | 154° |
| 2026-05-06 09:15 | -10.59976 | 110.65421 | 36849 ft | 489 kts | 153° |
| 2026-05-06 09:16 | -10.66009 | 110.68731 | 36845 ft | 488 kts | 153° |
| 2026-05-06 09:16 | -10.71998 | 110.72020 | 36844 ft | 489 kts | 153° |
| 2026-05-06 09:17 | -10.78022 | 110.75328 | 36845 ft | 489 kts | 153° |
| 2026-05-06 09:17 | -10.83990 | 110.78608 | 36850 ft | 489 kts | 153° |
| 2026-05-06 09:18 | -10.90049 | 110.81939 | 36860 ft | 490 kts | 153° |
| 2026-05-06 09:18 | -10.96078 | 110.85255 | 36861 ft | 489 kts | 153° |
| 2026-05-06 09:19 | -11.02048 | 110.88540 | 36864 ft | 490 kts | 154° |
| 2026-05-06 09:19 | -11.08066 | 110.91853 | 36867 ft | 490 kts | 154° |
| 2026-05-06 09:20 | -11.14058 | 110.95154 | 36869 ft | 489 kts | 153° |
| 2026-05-06 09:20 | -11.20072 | 110.98468 | 36866 ft | 488 kts | 154° |
| 2026-05-06 09:21 | -11.26111 | 111.01798 | 36860 ft | 488 kts | 154° |
| 2026-05-06 09:21 | -11.32112 | 111.05108 | 36865 ft | 489 kts | 154° |
| 2026-05-06 09:22 | -11.38136 | 111.08432 | 36863 ft | 489 kts | 154° |
| 2026-05-06 09:22 | -11.44155 | 111.11755 | 36862 ft | 489 kts | 154° |
| 2026-05-06 09:23 | -11.50201 | 111.15095 | 36860 ft | 489 kts | 154° |
| 2026-05-06 09:23 | -11.56216 | 111.18419 | 36861 ft | 489 kts | 154° |
| 2026-05-06 09:24 | -11.62228 | 111.21743 | 36861 ft | 489 kts | 154° |
| 2026-05-06 09:24 | -11.68233 | 111.25066 | 36863 ft | 489 kts | 154° |
| 2026-05-06 09:25 | -11.74261 | 111.28402 | 36863 ft | 489 kts | 154° |
| 2026-05-06 09:25 | -11.80221 | 111.31702 | 36866 ft | 488 kts | 154° |
| 2026-05-06 09:26 | -11.86231 | 111.35032 | 36866 ft | 488 kts | 154° |
| 2026-05-06 09:26 | -11.92182 | 111.38331 | 36869 ft | 488 kts | 154° |
| 2026-05-06 09:27 | -11.98182 | 111.41660 | 36865 ft | 487 kts | 153° |
| 2026-05-06 09:27 | -12.03752 | 111.45710 | 36871 ft | 493 kts | 144° |
| 2026-05-06 09:28 | -12.09104 | 111.50079 | 36869 ft | 492 kts | 144° |
| 2026-05-06 09:28 | -12.14481 | 111.54471 | 36876 ft | 493 kts | 144° |
| 2026-05-06 09:29 | -12.19844 | 111.58852 | 36880 ft | 493 kts | 144° |
| 2026-05-06 09:29 | -12.25215 | 111.63239 | 36877 ft | 492 kts | 144° |
| 2026-05-06 09:30 | -12.30585 | 111.67628 | 36872 ft | 493 kts | 144° |
| 2026-05-06 09:30 | -12.35967 | 111.72029 | 36875 ft | 493 kts | 144° |
| 2026-05-06 09:31 | -12.41349 | 111.76432 | 36875 ft | 494 kts | 144° |
| 2026-05-06 09:31 | -12.46719 | 111.80827 | 36876 ft | 494 kts | 144° |
| 2026-05-06 09:32 | -12.52106 | 111.85239 | 36877 ft | 495 kts | 144° |
| 2026-05-06 09:32 | -12.57482 | 111.89644 | 36882 ft | 495 kts | 144° |
| 2026-05-06 09:33 | -12.62908 | 111.94093 | 36887 ft | 495 kts | 144° |
| 2026-05-06 09:33 | -12.68304 | 111.98519 | 36888 ft | 496 kts | 144° |
| 2026-05-06 09:34 | -12.73724 | 112.02968 | 36889 ft | 496 kts | 144° |
| 2026-05-06 09:34 | -12.79112 | 112.07393 | 36889 ft | 496 kts | 144° |
| 2026-05-06 09:35 | -12.84538 | 112.11851 | 36888 ft | 496 kts | 144° |
| 2026-05-06 09:35 | -12.89916 | 112.16273 | 36888 ft | 497 kts | 144° |
| 2026-05-06 09:36 | -12.95344 | 112.20738 | 36889 ft | 498 kts | 144° |
| 2026-05-06 09:36 | -13.00728 | 112.25170 | 36891 ft | 497 kts | 144° |
| 2026-05-06 09:37 | -13.06154 | 112.29639 | 36892 ft | 497 kts | 144° |
| 2026-05-06 09:37 | -13.11558 | 112.34092 | 36896 ft | 497 kts | 144° |
| 2026-05-06 09:38 | -13.17002 | 112.38581 | 36898 ft | 496 kts | 144° |
| 2026-05-06 09:38 | -13.22383 | 112.43021 | 36900 ft | 497 kts | 144° |
| 2026-05-06 09:39 | -13.27751 | 112.47452 | 36899 ft | 497 kts | 145° |
| 2026-05-06 09:39 | -13.33142 | 112.51905 | 36904 ft | 496 kts | 145° |
| 2026-05-06 09:40 | -13.38577 | 112.56397 | 36908 ft | 496 kts | 145° |
| 2026-05-06 09:40 | -13.46643 | 112.63068 | 36913 ft | 497 kts | 145° |
| 2026-05-06 09:41 | -13.52000 | 112.67502 | 36905 ft | 496 kts | 145° |
| 2026-05-06 09:41 | -13.57399 | 112.71973 | 36906 ft | 495 kts | 145° |
| 2026-05-06 09:42 | -13.62776 | 112.76430 | 36906 ft | 496 kts | 145° |
| 2026-05-06 09:42 | -13.68160 | 112.80894 | 36906 ft | 496 kts | 145° |
| 2026-05-06 09:43 | -13.73530 | 112.85349 | 36906 ft | 496 kts | 145° |
| 2026-05-06 09:43 | -13.78898 | 112.89807 | 36906 ft | 495 kts | 145° |
| 2026-05-06 09:44 | -13.84248 | 112.94250 | 36908 ft | 495 kts | 145° |
| 2026-05-06 09:44 | -13.89599 | 112.98698 | 36907 ft | 496 kts | 145° |
| 2026-05-06 09:45 | -13.94995 | 113.03186 | 36906 ft | 496 kts | 145° |
| 2026-05-06 09:45 | -14.00392 | 113.07678 | 36909 ft | 497 kts | 145° |
| 2026-05-06 09:46 | -14.05771 | 113.12157 | 36913 ft | 496 kts | 145° |
| 2026-05-06 09:46 | -14.11120 | 113.16615 | 36928 ft | 497 kts | 145° |
| 2026-05-06 09:47 | -14.16479 | 113.21083 | 36933 ft | 496 kts | 145° |
| 2026-05-06 09:47 | -14.21860 | 113.25573 | 36935 ft | 497 kts | 146° |
| 2026-05-06 09:48 | -14.27267 | 113.30087 | 36935 ft | 497 kts | 146° |
| 2026-05-06 09:48 | -14.32647 | 113.34582 | 36934 ft | 497 kts | 146° |
| 2026-05-06 09:49 | -14.38019 | 113.39072 | 36932 ft | 497 kts | 146° |
| 2026-05-06 09:49 | -14.43413 | 113.43584 | 36927 ft | 498 kts | 146° |
| 2026-05-06 09:50 | -14.48788 | 113.48082 | 36924 ft | 498 kts | 146° |
| 2026-05-06 09:50 | -14.54174 | 113.52594 | 36926 ft | 497 kts | 146° |
| 2026-05-06 09:51 | -14.59579 | 113.57124 | 36929 ft | 499 kts | 146° |
| 2026-05-06 09:51 | -14.64945 | 113.61623 | 36929 ft | 498 kts | 146° |
| 2026-05-06 09:52 | -14.70362 | 113.66170 | 36917 ft | 497 kts | 146° |
| 2026-05-06 09:52 | -14.75726 | 113.70673 | 36919 ft | 498 kts | 146° |
| 2026-05-06 09:53 | -14.81118 | 113.75204 | 36916 ft | 499 kts | 146° |
| 2026-05-06 09:53 | -14.86516 | 113.79743 | 36909 ft | 497 kts | 146° |
| 2026-05-06 09:54 | -14.91875 | 113.84252 | 36905 ft | 499 kts | 146° |
| 2026-05-06 09:54 | -14.97274 | 113.88798 | 36905 ft | 497 kts | 146° |
| 2026-05-06 09:55 | -15.02646 | 113.93323 | 36906 ft | 500 kts | 146° |
| 2026-05-06 09:55 | -15.08038 | 113.97870 | 36914 ft | 498 kts | 146° |
| 2026-05-06 09:56 | -15.13439 | 114.02426 | 36920 ft | 500 kts | 146° |
| 2026-05-06 09:56 | -15.18846 | 114.06991 | 36930 ft | 499 kts | 146° |
| 2026-05-06 09:57 | -15.24203 | 114.11517 | 36936 ft | 498 kts | 146° |
| 2026-05-06 09:57 | -15.29599 | 114.16077 | 36940 ft | 500 kts | 146° |
| 2026-05-06 09:58 | -15.34974 | 114.20625 | 36937 ft | 499 kts | 147° |
| 2026-05-06 09:58 | -15.40415 | 114.25231 | 36941 ft | 500 kts | 146° |
| 2026-05-06 09:59 | -15.45804 | 114.29797 | 36940 ft | 500 kts | 147° |
| 2026-05-06 09:59 | -15.51214 | 114.34382 | 36936 ft | 502 kts | 147° |
| 2026-05-06 10:00 | -15.56620 | 114.38969 | 36934 ft | 499 kts | 147° |
| 2026-05-06 10:00 | -15.62025 | 114.43556 | 36936 ft | 501 kts | 147° |
| 2026-05-06 10:01 | -15.67410 | 114.48131 | 36937 ft | 502 kts | 147° |
| 2026-05-06 10:01 | -15.72809 | 114.52721 | 36936 ft | 501 kts | 147° |
| 2026-05-06 10:02 | -15.78214 | 114.57318 | 36937 ft | 502 kts | 147° |
| 2026-05-06 10:02 | -15.83615 | 114.61916 | 36938 ft | 502 kts | 147° |
| 2026-05-06 10:03 | -15.89010 | 114.66514 | 36924 ft | 502 kts | 147° |
| 2026-05-06 10:03 | -15.94441 | 114.71143 | 36923 ft | 503 kts | 147° |
| 2026-05-06 10:04 | -15.99879 | 114.75782 | 36922 ft | 503 kts | 147° |
| 2026-05-06 10:04 | -16.05332 | 114.80438 | 36922 ft | 504 kts | 147° |
| 2026-05-06 10:05 | -16.10749 | 114.85067 | 36929 ft | 503 kts | 147° |
| 2026-05-06 10:05 | -16.16197 | 114.89725 | 36926 ft | 502 kts | 147° |
| 2026-05-06 10:06 | -16.21648 | 114.94388 | 36933 ft | 506 kts | 147° |
| 2026-05-06 10:06 | -16.27057 | 114.99020 | 36936 ft | 503 kts | 147° |
| 2026-05-06 10:07 | -16.32490 | 115.03675 | 36934 ft | 506 kts | 147° |
| 2026-05-06 10:07 | -16.37925 | 115.08337 | 36939 ft | 504 kts | 148° |
| 2026-05-06 10:08 | -16.43340 | 115.12983 | 36940 ft | 506 kts | 148° |
| 2026-05-06 10:08 | -16.48817 | 115.17693 | 36940 ft | 504 kts | 147° |
| 2026-05-06 10:09 | -16.54256 | 115.22374 | 36947 ft | 505 kts | 148° |
| 2026-05-06 10:09 | -16.59672 | 115.27040 | 36951 ft | 505 kts | 148° |
| 2026-05-06 10:10 | -16.65119 | 115.31736 | 36952 ft | 503 kts | 148° |
| 2026-05-06 10:10 | -16.70530 | 115.36401 | 36953 ft | 506 kts | 148° |
| 2026-05-06 10:11 | -16.75982 | 115.41110 | 36956 ft | 504 kts | 148° |
| 2026-05-06 10:11 | -16.81387 | 115.45779 | 36953 ft | 504 kts | 148° |
| 2026-05-06 10:12 | -16.86800 | 115.50459 | 36956 ft | 505 kts | 148° |
| 2026-05-06 10:12 | -16.92228 | 115.55156 | 36958 ft | 505 kts | 148° |
| 2026-05-06 10:13 | -16.97631 | 115.59834 | 36959 ft | 505 kts | 148° |
| 2026-05-06 10:13 | -17.03074 | 115.64552 | 36960 ft | 503 kts | 148° |
| 2026-05-06 10:14 | -17.08514 | 115.69268 | 36939 ft | 507 kts | 148° |
| 2026-05-06 10:14 | -17.13937 | 115.73977 | 36953 ft | 505 kts | 148° |
| 2026-05-06 10:15 | -17.19370 | 115.78694 | 36954 ft | 508 kts | 148° |
| 2026-05-06 10:15 | -17.24825 | 115.83439 | 36951 ft | 504 kts | 148° |
| 2026-05-06 10:16 | -17.30259 | 115.88165 | 36956 ft | 506 kts | 148° |
| 2026-05-06 10:16 | -17.35678 | 115.92883 | 36959 ft | 508 kts | 148° |
| 2026-05-06 10:17 | -17.41115 | 115.97621 | 36958 ft | 508 kts | 148° |
| 2026-05-06 10:17 | -17.46554 | 116.02365 | 36959 ft | 507 kts | 148° |
| 2026-05-06 10:18 | -17.52002 | 116.07121 | 36963 ft | 508 kts | 148° |
| 2026-05-06 10:18 | -17.57463 | 116.11890 | 36963 ft | 508 kts | 149° |
| 2026-05-06 10:19 | -17.62896 | 116.16640 | 36963 ft | 508 kts | 148° |
| 2026-05-06 10:19 | -17.68328 | 116.21393 | 36967 ft | 509 kts | 148° |
| 2026-05-06 10:20 | -17.73800 | 116.26183 | 36966 ft | 510 kts | 148° |
| 2026-05-06 10:20 | -17.79265 | 116.30975 | 36970 ft | 509 kts | 149° |
| 2026-05-06 10:21 | -17.84745 | 116.35780 | 36970 ft | 512 kts | 149° |
| 2026-05-06 10:21 | -17.90198 | 116.40567 | 36979 ft | 511 kts | 149° |
| 2026-05-06 10:22 | -17.95653 | 116.45358 | 36972 ft | 513 kts | 148° |
| 2026-05-06 10:22 | -18.01126 | 116.50172 | 36974 ft | 513 kts | 148° |
| 2026-05-06 10:23 | -18.06613 | 116.55000 | 36979 ft | 513 kts | 148° |
| 2026-05-06 10:23 | -18.12091 | 116.59826 | 36988 ft | 513 kts | 149° |
| 2026-05-06 10:24 | -18.17566 | 116.64649 | 36987 ft | 513 kts | 149° |
| 2026-05-06 10:24 | -18.23085 | 116.69513 | 36967 ft | 514 kts | 148° |
| 2026-05-06 10:25 | -18.28558 | 116.74344 | 36968 ft | 514 kts | 149° |
| 2026-05-06 10:25 | -18.34031 | 116.79176 | 36968 ft | 515 kts | 149° |
| 2026-05-06 10:26 | -18.39545 | 116.84049 | 36968 ft | 516 kts | 148° |
| 2026-05-06 10:26 | -18.45069 | 116.88936 | 36968 ft | 517 kts | 149° |
| 2026-05-06 10:27 | -18.50604 | 116.93836 | 36968 ft | 516 kts | 149° |
| 2026-05-06 10:27 | -18.56108 | 116.98714 | 36969 ft | 517 kts | 149° |
| 2026-05-06 10:28 | -18.61636 | 117.03616 | 36972 ft | 518 kts | 149° |
| 2026-05-06 10:28 | -18.67154 | 117.08516 | 36973 ft | 517 kts | 149° |
| 2026-05-06 10:29 | -18.72682 | 117.13429 | 36973 ft | 517 kts | 149° |
| 2026-05-06 10:29 | -18.78219 | 117.18350 | 36971 ft | 519 kts | 149° |
| 2026-05-06 10:30 | -18.83731 | 117.23259 | 36973 ft | 517 kts | 149° |
| 2026-05-06 10:30 | -18.89276 | 117.28196 | 36977 ft | 520 kts | 149° |
| 2026-05-06 10:31 | -18.94821 | 117.33141 | 36976 ft | 520 kts | 149° |
| 2026-05-06 10:31 | -19.00361 | 117.38087 | 36976 ft | 518 kts | 149° |
| 2026-05-06 10:32 | -19.05901 | 117.43034 | 36979 ft | 520 kts | 149° |
| 2026-05-06 10:32 | -19.11418 | 117.47969 | 36985 ft | 518 kts | 149° |
| 2026-05-06 10:33 | -19.16928 | 117.52897 | 36986 ft | 522 kts | 149° |
| 2026-05-06 10:33 | -19.22459 | 117.57853 | 36990 ft | 519 kts | 149° |
| 2026-05-06 10:34 | -19.27974 | 117.62797 | 36984 ft | 521 kts | 149° |
| 2026-05-06 10:34 | -19.33532 | 117.67786 | 36959 ft | 520 kts | 149° |
| 2026-05-06 10:35 | -19.39067 | 117.72756 | 36958 ft | 521 kts | 149° |
| 2026-05-06 10:35 | -19.44566 | 117.77700 | 36955 ft | 521 kts | 149° |
| 2026-05-06 10:36 | -19.50095 | 117.82675 | 36949 ft | 520 kts | 149° |
| 2026-05-06 10:36 | -19.55648 | 117.87676 | 36954 ft | 522 kts | 149° |
| 2026-05-06 10:37 | -19.61194 | 117.92678 | 36951 ft | 521 kts | 149° |
| 2026-05-06 10:37 | -19.66791 | 117.97727 | 36954 ft | 521 kts | 149° |
| 2026-05-06 10:38 | -19.72330 | 118.02730 | 36950 ft | 524 kts | 149° |
| 2026-05-06 10:38 | -19.77847 | 118.07719 | 36953 ft | 522 kts | 149° |
| 2026-05-06 10:39 | -19.83407 | 118.12748 | 36952 ft | 524 kts | 149° |
| 2026-05-06 10:39 | -19.88933 | 118.17757 | 36953 ft | 521 kts | 149° |
| 2026-05-06 10:40 | -19.94474 | 118.22779 | 36955 ft | 521 kts | 149° |
| 2026-05-06 10:40 | -20.00014 | 118.27805 | 36955 ft | 525 kts | 149° |
| 2026-05-06 10:41 | -20.05519 | 118.32810 | 36957 ft | 519 kts | 149° |
| 2026-05-06 10:41 | -20.11059 | 118.37845 | 36965 ft | 521 kts | 149° |
| 2026-05-06 10:42 | -20.16591 | 118.42880 | 36969 ft | 521 kts | 149° |
| 2026-05-06 10:42 | -20.22110 | 118.47908 | 36975 ft | 521 kts | 149° |
| 2026-05-06 10:43 | -20.27664 | 118.52971 | 36978 ft | 523 kts | 149° |
| 2026-05-06 10:44 | -20.35875 | 118.60472 | 36983 ft | 520 kts | 149° |
| 2026-05-06 10:44 | -20.41159 | 118.65890 | 36978 ft | 527 kts | 143° |
| 2026-05-06 10:45 | -20.46288 | 118.71542 | 36971 ft | 531 kts | 142° |
| 2026-05-06 10:45 | -20.51420 | 118.77206 | 36972 ft | 527 kts | 142° |
| 2026-05-06 10:46 | -20.56549 | 118.82867 | 36983 ft | 530 kts | 142° |
| 2026-05-06 10:46 | -20.61653 | 118.88506 | 36985 ft | 526 kts | 142° |
| 2026-05-06 10:47 | -20.66790 | 118.94184 | 36991 ft | 529 kts | 142° |
| 2026-05-06 10:47 | -20.71888 | 118.99828 | 36996 ft | 525 kts | 142° |
| 2026-05-06 10:48 | -20.76982 | 119.05469 | 37001 ft | 527 kts | 142° |
| 2026-05-06 10:48 | -20.82020 | 119.11055 | 37005 ft | 524 kts | 142° |
| 2026-05-06 10:49 | -20.87110 | 119.16703 | 37006 ft | 526 kts | 142° |
| 2026-05-06 10:49 | -20.92188 | 119.22346 | 37012 ft | 525 kts | 142° |
| 2026-05-06 10:50 | -20.97232 | 119.27956 | 37017 ft | 523 kts | 142° |
| 2026-05-06 10:50 | -21.02269 | 119.33563 | 37018 ft | 525 kts | 142° |
| 2026-05-06 10:51 | -21.07338 | 119.39213 | 37022 ft | 523 kts | 142° |
| 2026-05-06 10:51 | -21.12402 | 119.44861 | 37036 ft | 525 kts | 142° |
| 2026-05-06 10:52 | -21.17466 | 119.50517 | 37033 ft | 526 kts | 142° |
| 2026-05-06 10:52 | -21.22515 | 119.56162 | 37043 ft | 525 kts | 142° |
| 2026-05-06 10:53 | -21.27577 | 119.61828 | 37049 ft | 524 kts | 142° |
| 2026-05-06 10:53 | -21.32640 | 119.67499 | 37027 ft | 527 kts | 142° |
| 2026-05-06 10:54 | -21.37714 | 119.73190 | 37036 ft | 525 kts | 142° |
| 2026-05-06 10:54 | -21.42754 | 119.78851 | 37038 ft | 526 kts | 142° |
| 2026-05-06 10:55 | -21.47807 | 119.84529 | 37040 ft | 526 kts | 142° |
| 2026-05-06 10:55 | -21.52886 | 119.90246 | 37054 ft | 525 kts | 142° |
| 2026-05-06 10:56 | -21.57917 | 119.95911 | 37064 ft | 527 kts | 142° |
| 2026-05-06 10:56 | -21.62992 | 120.01635 | 37064 ft | 525 kts | 142° |
| 2026-05-06 10:57 | -21.68049 | 120.07340 | 37072 ft | 530 kts | 142° |
| 2026-05-06 10:57 | -21.73111 | 120.13065 | 37075 ft | 525 kts | 142° |
| 2026-05-06 10:58 | -21.78127 | 120.18739 | 37077 ft | 526 kts | 142° |
| 2026-05-06 10:58 | -21.83175 | 120.24455 | 37084 ft | 527 kts | 142° |
| 2026-05-06 10:59 | -21.88215 | 120.30169 | 37091 ft | 527 kts | 142° |
| 2026-05-06 10:59 | -21.93283 | 120.35921 | 37094 ft | 528 kts | 142° |
| 2026-05-06 11:00 | -21.98372 | 120.41703 | 37102 ft | 529 kts | 142° |
| 2026-05-06 11:00 | -22.03403 | 120.47429 | 37108 ft | 526 kts | 142° |
| 2026-05-06 11:01 | -22.08496 | 120.53226 | 37115 ft | 530 kts | 142° |
| 2026-05-06 11:01 | -22.13581 | 120.59026 | 37125 ft | 526 kts | 142° |
| 2026-05-06 11:02 | -22.18630 | 120.64788 | 37127 ft | 528 kts | 142° |
| 2026-05-06 11:02 | -22.23663 | 120.70540 | 37109 ft | 526 kts | 141° |
| 2026-05-06 11:03 | -22.28711 | 120.76313 | 37108 ft | 529 kts | 141° |
| 2026-05-06 11:03 | -22.33784 | 120.82123 | 37110 ft | 528 kts | 141° |
| 2026-05-06 11:04 | -22.38816 | 120.87893 | 37115 ft | 528 kts | 141° |
| 2026-05-06 11:04 | -22.43870 | 120.93694 | 37110 ft | 527 kts | 141° |
| 2026-05-06 11:05 | -22.48865 | 120.99435 | 37130 ft | 526 kts | 141° |
| 2026-05-06 11:05 | -22.53898 | 121.05225 | 37134 ft | 526 kts | 141° |
| 2026-05-06 11:06 | -22.58921 | 121.11010 | 37139 ft | 526 kts | 141° |
| 2026-05-06 11:06 | -22.63925 | 121.16781 | 37138 ft | 525 kts | 141° |
| 2026-05-06 11:07 | -22.68955 | 121.22586 | 37151 ft | 527 kts | 141° |
| 2026-05-06 11:07 | -22.73947 | 121.28355 | 37154 ft | 528 kts | 141° |
| 2026-05-06 11:08 | -22.78955 | 121.34150 | 37162 ft | 525 kts | 141° |
| 2026-05-06 11:08 | -22.83964 | 121.39951 | 37173 ft | 528 kts | 140° |
| 2026-05-06 11:09 | -22.88978 | 121.45767 | 37183 ft | 525 kts | 140° |
| 2026-05-06 11:09 | -22.93998 | 121.51595 | 37185 ft | 525 kts | 140° |
| 2026-05-06 11:10 | -22.98979 | 121.57391 | 37190 ft | 526 kts | 140° |
| 2026-05-06 11:10 | -23.03992 | 121.63231 | 37196 ft | 528 kts | 140° |
| 2026-05-06 11:11 | -23.09003 | 121.69078 | 37177 ft | 526 kts | 140° |
| 2026-05-06 11:11 | -23.13991 | 121.74903 | 37188 ft | 525 kts | 140° |
| 2026-05-06 11:12 | -23.18953 | 121.80705 | 37187 ft | 525 kts | 140° |
| 2026-05-06 11:12 | -23.23952 | 121.86557 | 37194 ft | 525 kts | 139° |
| 2026-05-06 11:13 | -23.28869 | 121.92320 | 37198 ft | 524 kts | 139° |
| 2026-05-06 11:13 | -23.33853 | 121.98167 | 37202 ft | 523 kts | 139° |
| 2026-05-06 11:14 | -23.38814 | 122.03995 | 37196 ft | 524 kts | 139° |
| 2026-05-06 11:14 | -23.43784 | 122.09839 | 37203 ft | 525 kts | 139° |
| 2026-05-06 11:15 | -23.48743 | 122.15680 | 37199 ft | 524 kts | 139° |
| 2026-05-06 11:15 | -23.53670 | 122.21488 | 37205 ft | 523 kts | 139° |
| 2026-05-06 11:16 | -23.58633 | 122.27347 | 37207 ft | 523 kts | 139° |
| 2026-05-06 11:16 | -23.63547 | 122.33154 | 37212 ft | 523 kts | 139° |
| 2026-05-06 11:17 | -23.68487 | 122.38998 | 37220 ft | 522 kts | 139° |
| 2026-05-06 11:17 | -23.73399 | 122.44816 | 37221 ft | 523 kts | 138° |
| 2026-05-06 11:18 | -23.78330 | 122.50665 | 37218 ft | 525 kts | 138° |
| 2026-05-06 11:18 | -23.83279 | 122.56541 | 37218 ft | 523 kts | 138° |
| 2026-05-06 11:19 | -23.88237 | 122.62436 | 37225 ft | 523 kts | 138° |
| 2026-05-06 11:19 | -23.93143 | 122.68274 | 37209 ft | 524 kts | 137° |
| 2026-05-06 11:20 | -23.98047 | 122.74120 | 37208 ft | 521 kts | 138° |
| 2026-05-06 11:20 | -24.02978 | 122.80003 | 37214 ft | 522 kts | 138° |
| 2026-05-06 11:21 | -24.07850 | 122.85825 | 37212 ft | 519 kts | 137° |
| 2026-05-06 11:21 | -24.12722 | 122.91652 | 37229 ft | 518 kts | 137° |
| 2026-05-06 11:22 | -24.17602 | 122.97494 | 37225 ft | 521 kts | 137° |
| 2026-05-06 11:22 | -24.22509 | 123.03378 | 37228 ft | 521 kts | 137° |
| 2026-05-06 11:23 | -24.27382 | 123.09229 | 37242 ft | 520 kts | 137° |
| 2026-05-06 11:23 | -24.32253 | 123.15083 | 37234 ft | 522 kts | 137° |
| 2026-05-06 11:24 | -24.37137 | 123.20961 | 37245 ft | 519 kts | 137° |
| 2026-05-06 11:24 | -24.41980 | 123.26798 | 37255 ft | 519 kts | 137° |
| 2026-05-06 11:25 | -24.46876 | 123.32705 | 37253 ft | 520 kts | 137° |
| 2026-05-06 11:25 | -24.51711 | 123.38547 | 37251 ft | 519 kts | 137° |
| 2026-05-06 11:26 | -24.56579 | 123.44435 | 37259 ft | 519 kts | 137° |
| 2026-05-06 11:26 | -24.61435 | 123.50317 | 37264 ft | 520 kts | 137° |
| 2026-05-06 11:27 | -24.66286 | 123.56201 | 37266 ft | 517 kts | 137° |
| 2026-05-06 11:27 | -24.71117 | 123.62067 | 37269 ft | 518 kts | 137° |
| 2026-05-06 11:28 | -24.75987 | 123.67987 | 37257 ft | 520 kts | 136° |
| 2026-05-06 11:28 | -24.80840 | 123.73895 | 37248 ft | 518 kts | 136° |
| 2026-05-06 11:29 | -24.85681 | 123.79794 | 37266 ft | 518 kts | 136° |
| 2026-05-06 11:29 | -24.90513 | 123.85693 | 37276 ft | 517 kts | 136° |
| 2026-05-06 11:30 | -24.95318 | 123.91563 | 37282 ft | 518 kts | 136° |
| 2026-05-06 11:30 | -25.00137 | 123.97459 | 37291 ft | 518 kts | 136° |
| 2026-05-06 11:31 | -25.04981 | 124.03394 | 37294 ft | 517 kts | 136° |
| 2026-05-06 11:31 | -25.09777 | 124.09276 | 37288 ft | 518 kts | 136° |
| 2026-05-06 11:32 | -25.14617 | 124.15220 | 37290 ft | 517 kts | 136° |
| 2026-05-06 11:32 | -25.19392 | 124.21092 | 37295 ft | 515 kts | 136° |
| 2026-05-06 11:33 | -25.24213 | 124.27028 | 37296 ft | 517 kts | 136° |
| 2026-05-06 11:33 | -25.28985 | 124.32911 | 37299 ft | 515 kts | 136° |
| 2026-05-06 11:34 | -25.33776 | 124.38824 | 37308 ft | 517 kts | 136° |
| 2026-05-06 11:34 | -25.38556 | 124.44733 | 37312 ft | 517 kts | 136° |
| 2026-05-06 11:35 | -25.43384 | 124.50707 | 37311 ft | 518 kts | 136° |
| 2026-05-06 11:35 | -25.48172 | 124.56641 | 37312 ft | 517 kts | 136° |
| 2026-05-06 11:36 | -25.52945 | 124.62565 | 37315 ft | 516 kts | 136° |
| 2026-05-06 11:36 | -25.57731 | 124.68510 | 37308 ft | 517 kts | 136° |
| 2026-05-06 11:37 | -25.62487 | 124.74428 | 37306 ft | 516 kts | 135° |
| 2026-05-06 11:37 | -25.67262 | 124.80375 | 37303 ft | 516 kts | 135° |
| 2026-05-06 11:38 | -25.72058 | 124.86357 | 37313 ft | 516 kts | 135° |
| 2026-05-06 11:38 | -25.76817 | 124.92301 | 37310 ft | 516 kts | 135° |
| 2026-05-06 11:39 | -25.81574 | 124.98250 | 37313 ft | 515 kts | 135° |
| 2026-05-06 11:39 | -25.83922 | 125.01189 | 37182 ft | 516 kts | 135° |
| 2026-05-06 11:39 | -25.86313 | 125.04184 | 37286 ft | 515 kts | 135° |
| 2026-05-06 11:40 | -25.91059 | 125.10133 | 37387 ft | 518 kts | 135° |
| 2026-05-06 11:40 | -25.95835 | 125.16132 | 37321 ft | 515 kts | 135° |
| 2026-05-06 11:41 | -26.00552 | 125.22062 | 37313 ft | 515 kts | 135° |
| 2026-05-06 11:41 | -26.05317 | 125.28059 | 37330 ft | 516 kts | 135° |
| 2026-05-06 11:42 | -26.10043 | 125.34016 | 37335 ft | 515 kts | 135° |
| 2026-05-06 11:42 | -26.14786 | 125.40003 | 37343 ft | 514 kts | 135° |
| 2026-05-06 11:43 | -26.19509 | 125.45973 | 37343 ft | 514 kts | 135° |
| 2026-05-06 11:43 | -26.24226 | 125.51942 | 37348 ft | 515 kts | 135° |
| 2026-05-06 11:44 | -26.31285 | 125.60890 | 37343 ft | 513 kts | 135° |
| 2026-05-06 11:44 | -26.36001 | 125.66878 | 37342 ft | 514 kts | 135° |
| 2026-05-06 11:45 | -26.40724 | 125.72884 | 37341 ft | 513 kts | 135° |
| 2026-05-06 11:45 | -26.45417 | 125.78860 | 37354 ft | 514 kts | 135° |
| 2026-05-06 11:46 | -26.50120 | 125.84856 | 37348 ft | 514 kts | 135° |
| 2026-05-06 11:46 | -26.54799 | 125.90829 | 37353 ft | 514 kts | 135° |
| 2026-05-06 11:47 | -26.59495 | 125.96832 | 37351 ft | 512 kts | 135° |
| 2026-05-06 11:47 | -26.64188 | 126.02840 | 37340 ft | 513 kts | 135° |
| 2026-05-06 11:48 | -26.68884 | 126.08860 | 37341 ft | 513 kts | 135° |
| 2026-05-06 11:48 | -26.73572 | 126.14877 | 37349 ft | 513 kts | 135° |
| 2026-05-06 11:49 | -26.78254 | 126.20895 | 37351 ft | 513 kts | 135° |
| 2026-05-06 11:49 | -26.82944 | 126.26930 | 37365 ft | 514 kts | 134° |
| 2026-05-06 11:50 | -26.87623 | 126.32962 | 37357 ft | 514 kts | 134° |
| 2026-05-06 11:50 | -26.92295 | 126.38991 | 37368 ft | 514 kts | 134° |
| 2026-05-06 11:51 | -26.96967 | 126.45030 | 37372 ft | 511 kts | 134° |
| 2026-05-06 11:51 | -27.01645 | 126.51085 | 37368 ft | 511 kts | 134° |
| 2026-05-06 11:52 | -27.06303 | 126.57121 | 37354 ft | 511 kts | 134° |
| 2026-05-06 11:52 | -27.10916 | 126.63108 | 37351 ft | 511 kts | 134° |
| 2026-05-06 11:53 | -27.15590 | 126.69182 | 37340 ft | 512 kts | 134° |
| 2026-05-06 11:53 | -27.20230 | 126.75221 | 37342 ft | 512 kts | 134° |
| 2026-05-06 11:54 | -27.24862 | 126.81258 | 37341 ft | 510 kts | 134° |
| 2026-05-06 11:54 | -27.29477 | 126.87281 | 37346 ft | 509 kts | 134° |
| 2026-05-06 11:55 | -27.34103 | 126.93330 | 37353 ft | 509 kts | 134° |
| 2026-05-06 11:55 | -27.38731 | 126.99393 | 37360 ft | 509 kts | 134° |
| 2026-05-06 11:56 | -27.43319 | 127.05415 | 37359 ft | 509 kts | 134° |
| 2026-05-06 11:56 | -27.47935 | 127.11480 | 37359 ft | 509 kts | 134° |
| 2026-05-06 11:57 | -27.52545 | 127.17547 | 37365 ft | 508 kts | 133° |
| 2026-05-06 11:57 | -27.57130 | 127.23589 | 37370 ft | 508 kts | 133° |
| 2026-05-06 11:58 | -27.61721 | 127.29648 | 37365 ft | 507 kts | 133° |
| 2026-05-06 11:58 | -27.66292 | 127.35688 | 37368 ft | 505 kts | 134° |
| 2026-05-06 11:59 | -27.70849 | 127.41718 | 37370 ft | 507 kts | 133° |
| 2026-05-06 11:59 | -27.75401 | 127.47751 | 37372 ft | 506 kts | 133° |
| 2026-05-06 12:00 | -27.79995 | 127.53846 | 37373 ft | 507 kts | 133° |
| 2026-05-06 12:00 | -27.84554 | 127.59905 | 37377 ft | 507 kts | 133° |
| 2026-05-06 12:01 | -27.89116 | 127.65977 | 37376 ft | 504 kts | 133° |
| 2026-05-06 12:01 | -27.93643 | 127.72010 | 37374 ft | 505 kts | 133° |
| 2026-05-06 12:02 | -27.98197 | 127.78088 | 37381 ft | 505 kts | 133° |
| 2026-05-06 12:02 | -28.02737 | 127.84157 | 37374 ft | 505 kts | 133° |
| 2026-05-06 12:03 | -28.07281 | 127.90239 | 37377 ft | 504 kts | 133° |
| 2026-05-06 12:03 | -28.11796 | 127.96290 | 37377 ft | 505 kts | 133° |
| 2026-05-06 12:04 | -28.16335 | 128.02383 | 37380 ft | 504 kts | 133° |
| 2026-05-06 12:04 | -28.20851 | 128.08453 | 37380 ft | 504 kts | 133° |
| 2026-05-06 12:05 | -28.25344 | 128.14504 | 37381 ft | 504 kts | 133° |
| 2026-05-06 12:05 | -28.29875 | 128.20612 | 37382 ft | 504 kts | 133° |
| 2026-05-06 12:06 | -28.34367 | 128.26675 | 37382 ft | 503 kts | 133° |
| 2026-05-06 12:06 | -28.38860 | 128.32750 | 37383 ft | 503 kts | 133° |
| 2026-05-06 12:07 | -28.43379 | 128.38867 | 37375 ft | 503 kts | 132° |
| 2026-05-06 12:07 | -28.47865 | 128.44951 | 37367 ft | 503 kts | 132° |
| 2026-05-06 12:08 | -28.52358 | 128.51053 | 37368 ft | 503 kts | 132° |
| 2026-05-06 12:08 | -28.56846 | 128.57155 | 37368 ft | 504 kts | 132° |
| 2026-05-06 12:09 | -28.61327 | 128.63258 | 37375 ft | 503 kts | 132° |
| 2026-05-06 12:09 | -28.65807 | 128.69369 | 37381 ft | 502 kts | 132° |
| 2026-05-06 12:10 | -28.70279 | 128.75478 | 37384 ft | 502 kts | 131° |
| 2026-05-06 12:10 | -28.74764 | 128.81613 | 37387 ft | 502 kts | 131° |
| 2026-05-06 12:11 | -28.79192 | 128.87679 | 37385 ft | 502 kts | 132° |
| 2026-05-06 12:11 | -28.83667 | 128.93817 | 37387 ft | 502 kts | 131° |
| 2026-05-06 12:12 | -28.88115 | 128.99930 | 37390 ft | 502 kts | 131° |
| 2026-05-06 12:12 | -28.92583 | 129.06068 | 37389 ft | 503 kts | 132° |
| 2026-05-06 12:13 | -28.97039 | 129.12198 | 37389 ft | 503 kts | 132° |
| 2026-05-06 12:13 | -29.01512 | 129.18361 | 37387 ft | 503 kts | 131° |
| 2026-05-06 12:14 | -29.05949 | 129.24484 | 37388 ft | 501 kts | 131° |
| 2026-05-06 12:14 | -29.10391 | 129.30623 | 37387 ft | 502 kts | 131° |
| 2026-05-06 12:15 | -29.14843 | 129.36784 | 37383 ft | 500 kts | 131° |
| 2026-05-06 12:15 | -29.19275 | 129.42928 | 37382 ft | 501 kts | 131° |
| 2026-05-06 12:16 | -29.23697 | 129.49066 | 37379 ft | 502 kts | 131° |
| 2026-05-06 12:16 | -29.28129 | 129.55226 | 37381 ft | 500 kts | 131° |
| 2026-05-06 12:17 | -29.32551 | 129.61385 | 37384 ft | 500 kts | 132° |
| 2026-05-06 12:17 | -29.36957 | 129.67528 | 37375 ft | 501 kts | 131° |
| 2026-05-06 12:18 | -29.41352 | 129.73666 | 37378 ft | 500 kts | 131° |
| 2026-05-06 12:18 | -29.45776 | 129.79854 | 37376 ft | 499 kts | 131° |
| 2026-05-06 12:19 | -29.50171 | 129.86009 | 37383 ft | 500 kts | 131° |
| 2026-05-06 12:19 | -29.54573 | 129.92186 | 37383 ft | 500 kts | 131° |
| 2026-05-06 12:20 | -29.58973 | 129.98367 | 37381 ft | 499 kts | 131° |
| 2026-05-06 12:20 | -29.63362 | 130.04544 | 37384 ft | 499 kts | 131° |
| 2026-05-06 12:21 | -29.67726 | 130.10695 | 37382 ft | 499 kts | 131° |
| 2026-05-06 12:21 | -29.72123 | 130.16901 | 37384 ft | 500 kts | 131° |
| 2026-05-06 12:22 | -29.76505 | 130.23094 | 37392 ft | 499 kts | 131° |
| 2026-05-06 12:22 | -29.80871 | 130.29275 | 37401 ft | 499 kts | 131° |
| 2026-05-06 12:23 | -29.85252 | 130.35489 | 37403 ft | 499 kts | 131° |
| 2026-05-06 12:23 | -29.89637 | 130.41716 | 37401 ft | 499 kts | 131° |
| 2026-05-06 12:24 | -29.93995 | 130.47916 | 37395 ft | 498 kts | 131° |
| 2026-05-06 12:24 | -29.98375 | 130.54155 | 37398 ft | 498 kts | 131° |
| 2026-05-06 12:25 | -30.02708 | 130.60336 | 37396 ft | 498 kts | 131° |
| 2026-05-06 12:25 | -30.07048 | 130.66538 | 37387 ft | 498 kts | 130° |
| 2026-05-06 12:26 | -30.11408 | 130.72778 | 37379 ft | 499 kts | 130° |
| 2026-05-06 12:26 | -30.15785 | 130.79053 | 37390 ft | 498 kts | 130° |
| 2026-05-06 12:27 | -30.20101 | 130.85248 | 37390 ft | 498 kts | 130° |
| 2026-05-06 12:27 | -30.24444 | 130.91493 | 37388 ft | 498 kts | 130° |
| 2026-05-06 12:28 | -30.28775 | 130.97731 | 37393 ft | 498 kts | 130° |
| 2026-05-06 12:28 | -30.33116 | 131.03993 | 37391 ft | 498 kts | 130° |
| 2026-05-06 12:29 | -30.37442 | 131.10243 | 37387 ft | 499 kts | 130° |
| 2026-05-06 12:29 | -30.41755 | 131.16484 | 37386 ft | 497 kts | 130° |
| 2026-05-06 12:30 | -30.46094 | 131.22771 | 37384 ft | 499 kts | 130° |
| 2026-05-06 12:30 | -30.50425 | 131.29057 | 37385 ft | 497 kts | 130° |
| 2026-05-06 12:31 | -30.54708 | 131.35286 | 37387 ft | 497 kts | 130° |
| 2026-05-06 12:31 | -30.59027 | 131.41574 | 37383 ft | 498 kts | 130° |
| 2026-05-06 12:32 | -30.63322 | 131.47838 | 37383 ft | 497 kts | 130° |
| 2026-05-06 12:32 | -30.67603 | 131.54091 | 37384 ft | 496 kts | 130° |
| 2026-05-06 12:33 | -30.71889 | 131.60362 | 37388 ft | 497 kts | 130° |
| 2026-05-06 12:33 | -30.76176 | 131.66644 | 37388 ft | 495 kts | 130° |
| 2026-05-06 12:34 | -30.80475 | 131.72954 | 37395 ft | 496 kts | 130° |
| 2026-05-06 12:34 | -30.84747 | 131.79234 | 37394 ft | 496 kts | 130° |